Time;durP1;ratioP1;P1;durP2;ratioP2;P2;SDS_P1;SDS_P2;PMS_P1;PMS_P2;Temp;Humidity;BMP_temperature;BMP_pressure;BME280_temperature;BME280_humidity;BME280_pressure;Samples;Min_cycle;Max_cycle;Signal;HPM_P1;HPM_P2
2022/01/21 00:00:46;;;;;;;21.95;11.75;;;;;;;0.13;100.00;98602.06;4873454;29;20060;-59
2022/01/21 00:03:31;;;;;;;24.88;12.10;;;;;;;0.01;100.00;98603.78;4870586;29;20052;-64
2022/01/21 00:06:17;;;;;;;26.17;11.90;;;;;;;0.11;100.00;98606.44;4890189;29;20503;-56
2022/01/21 00:09:03;;;;;;;22.73;12.00;;;;;;;0.03;100.00;98601.19;4875106;29;20099;-59
2022/01/21 00:11:48;;;;;;;24.83;11.40;;;;;;;0.03;100.00;98590.75;4890463;29;20051;-61
2022/01/21 00:14:33;;;;;;;28.17;12.27;;;;;;;0.19;100.00;98596.91;4877643;29;20059;-58
2022/01/21 00:17:20;;;;;;;21.05;10.88;;;;;;;-0.04;100.00;98587.28;4890466;29;20055;-66
2022/01/21 00:32:19;;;;;;;24.67;11.93;;;;;;;-0.06;100.00;98568.19;4890045;29;20120;-61
2022/01/21 00:35:08;;;;;;;25.30;12.00;;;;;;;-0.06;100.00;98580.31;4891959;29;20161;-58
2022/01/21 00:37:52;;;;;;;22.45;11.48;;;;;;;-0.01;100.00;98571.66;4888890;29;20052;-57
2022/01/21 00:40:37;;;;;;;23.67;12.40;;;;;;;-0.10;100.00;98582.06;4891417;29;20199;-58
2022/01/21 00:43:32;;;;;;;28.10;11.25;;;;;;;-0.30;100.00;98591.56;4891262;29;20179;-58
2022/01/21 00:46:19;;;;;;;21.27;11.82;;;;;;;-0.21;100.00;98588.97;4888136;29;20426;-57
2022/01/21 00:49:04;;;;;;;24.50;11.52;;;;;;;-0.26;100.00;98587.22;4878200;29;20103;-58
2022/01/21 00:51:50;;;;;;;23.02;11.75;;;;;;;-0.17;100.00;98589.84;4891331;29;20288;-58
2022/01/21 00:54:37;;;;;;;25.35;12.38;;;;;;;-0.33;100.00;98585.44;4895107;29;20131;-57
2022/01/21 00:57:22;;;;;;;22.65;11.32;;;;;;;-0.33;100.00;98586.31;4910195;29;20473;-52
2022/01/21 01:00:10;;;;;;;;;;;;;;;-0.34;100.00;98584.59;4898789;29;20060;-63
2022/01/21 01:02:55;;;;;;;25.67;11.07;;;;;;;-0.38;100.00;98588.06;4859843;29;19927;-56
2022/01/21 01:05:41;;;;;;;21.63;11.52;;;;;;;-0.35;100.00;98580.22;4880003;29;20658;-56
2022/01/21 01:08:26;;;;;;;24.20;12.45;;;;;;;-0.36;100.00;98586.31;4887234;29;20079;-52
2022/01/21 01:11:18;;;;;;;23.23;12.15;;;;;;;-0.31;100.00;98588.94;4891132;29;20051;-57
2022/01/21 01:20:10;;;;;;;24.23;11.20;;;;;;;-0.27;100.00;98569.84;4890928;29;20131;-58
2022/01/21 01:23:03;;;;;;;26.33;10.93;;;;;;;-0.33;100.00;98595.84;4889673;29;20052;-61
2022/01/21 01:28:53;;;;;;;21.85;10.63;;;;;;;-0.31;100.00;98588.94;4888067;29;20493;-64
2022/01/21 01:31:38;;;;;;;;;;;;;;;-0.33;100.00;98585.44;4889287;29;20077;-61
2022/01/21 01:34:23;;;;;;;25.55;11.02;;;;;;;-0.35;100.00;98582.81;4882949;29;20051;-58
2022/01/21 01:37:17;;;;;;;23.67;11.63;;;;;;;-0.31;100.00;98578.53;4884546;29;20048;-52
2022/01/21 01:40:27;;;;;;;26.85;12.05;;;;;;;-0.24;100.00;98588.94;4885470;29;20112;-58
2022/01/21 01:49:38;;;;;;;25.85;12.43;;;;;;;-0.54;100.00;98575.84;4889797;29;20746;-64
2022/01/21 01:52:23;;;;;;;27.13;12.88;;;;;;;-0.57;100.00;98577.53;4891719;29;20059;-55
2022/01/21 01:55:09;;;;;;;26.40;11.82;;;;;;;-0.55;100.00;98571.47;4889609;29;20150;-54
2022/01/21 01:57:54;;;;;;;26.40;12.55;;;;;;;-0.39;100.00;98573.25;4888902;29;20099;-58
2022/01/21 02:00:39;;;;;;;;;;;;;;;-0.41;100.00;98563.72;4891247;29;20123;-53
2022/01/21 02:03:24;;;;;;;27.70;12.13;;;;;;;-0.51;100.00;98568.00;4875156;29;19946;-55
2022/01/21 02:06:09;;;;;;;25.13;12.40;;;;;;;-0.23;100.00;98566.41;4889298;29;20063;-53
2022/01/21 02:08:54;;;;;;;27.98;12.80;;;;;;;-0.22;100.00;98565.53;4891712;29;20182;-58
2022/01/21 02:11:39;;;;;;;26.45;12.85;;;;;;;-0.25;100.00;98576.81;4889895;29;20055;-65
2022/01/21 02:14:35;;;;;;;28.50;13.68;;;;;;;-0.23;100.00;98571.59;4887229;29;20055;-58
2022/01/21 02:23:13;;;;;;;28.67;14.20;;;;;;;-0.48;100.00;98561.94;4890409;29;20719;-58
2022/01/21 02:25:57;;;;;;;31.27;15.43;;;;;;;-0.29;100.00;98563.75;4903967;29;20112;-57
2022/01/21 02:28:43;;;;;;;31.73;15.25;;;;;;;-0.32;100.00;98567.22;4877694;29;20060;-50
2022/01/21 02:31:29;;;;;;;31.25;15.85;;;;;;;-0.33;100.00;98555.06;4889911;29;20184;-53
2022/01/21 02:34:14;;;;;;;31.58;15.52;;;;;;;-0.40;100.00;98563.72;4888342;29;20120;-60
2022/01/21 02:36:59;;;;;;;;;;;;;;;-0.53;100.00;98556.75;4889811;29;20120;-55
2022/01/21 02:39:45;;;;;;;33.58;15.60;;;;;;;-0.59;100.00;98568.88;4884482;29;20407;-65
2022/01/21 02:42:30;;;;;;;39.78;16.58;;;;;;;-0.54;100.00;98562.81;4889385;29;20095;-53
2022/01/21 02:45:15;;;;;;;39.38;17.33;;;;;;;-0.54;100.00;98562.81;4871633;29;20048;-64
2022/01/21 02:48:01;;;;;;;39.85;17.70;;;;;;;-0.33;100.00;98559.41;4880663;29;20594;-65
2022/01/21 02:50:47;;;;;;;36.95;16.27;;;;;;;-0.43;100.00;98548.09;4886753;29;20059;-55
2022/01/21 02:56:32;;;;;;;39.80;16.83;;;;;;;-0.73;100.00;98547.97;4891705;29;20154;-54
2022/01/21 02:59:17;;;;;;;40.25;17.02;;;;;;;-0.89;100.00;98527.06;4897978;29;20123;-55
2022/01/21 03:02:03;;;;;;;38.92;17.17;;;;;;;-0.89;100.00;98533.16;4902966;29;20521;-65
2022/01/21 03:05:03;;;;;;;38.67;17.67;;;;;;;-0.85;100.00;98537.53;4891675;29;20063;-56
2022/01/21 03:07:50;;;;;;;36.53;17.60;;;;;;;-0.87;100.00;98539.22;4891279;29;20397;-54
2022/01/21 03:10:38;;;;;;;43.92;19.20;;;;;;;-0.70;100.00;98527.16;4887244;29;20185;-56
2022/01/21 03:13:24;;;;;;;40.42;18.15;;;;;;;-0.90;100.00;98528.78;4863750;29;20109;-57
2022/01/21 03:16:09;;;;;;;43.05;18.88;;;;;;;-0.77;100.00;98529.75;4891351;29;20104;-60
2022/01/21 03:18:53;;;;;;;42.50;19.17;;;;;;;-0.92;100.00;98535.75;4886269;29;20124;-54
2022/01/21 03:21:39;;;;;;;48.30;19.85;;;;;;;-0.85;100.00;98536.63;4879622;29;20603;-65
2022/01/21 03:24:24;;;;;;;45.78;19.02;;;;;;;-0.81;100.00;98541.00;4873675;29;20116;-67
2022/01/21 03:27:09;;;;;;;45.05;19.73;;;;;;;-0.85;100.00;98547.03;4879039;29;20055;-65
2022/01/21 03:29:54;;;;;;;47.83;21.00;;;;;;;-0.78;100.00;98530.59;4886349;29;20116;-64
2022/01/21 03:32:41;;;;;;;44.08;19.00;;;;;;;-0.89;100.00;98534.88;4891658;29;20108;-58
2022/01/21 03:35:26;;;;;;;45.67;20.00;;;;;;;-0.93;100.00;98522.72;4890589;29;20051;-55
2022/01/21 03:38:14;;;;;;;48.75;21.33;;;;;;;-1.08;100.00;98525.22;4882198;29;20059;-55
2022/01/21 03:41:04;;;;;;;45.40;19.70;;;;;;;-0.89;100.00;98519.28;4877464;29;20397;-57
2022/01/21 03:43:49;;;;;;;48.22;20.42;;;;;;;-0.88;100.00;98523.59;4871934;29;20056;-55
2022/01/21 03:46:34;;;;;;;51.13;21.55;;;;;;;-1.09;100.00;98519.19;4873357;29;20109;-52
2022/01/21 03:49:19;;;;;;;53.45;22.30;;;;;;;-1.28;100.00;98516.44;4875637;29;20144;-58
2022/01/21 03:52:06;;;;;;;47.65;21.25;;;;;;;-1.18;100.00;98508.72;4887315;29;20090;-54
2022/01/21 03:54:52;;;;;;;53.63;21.85;;;;;;;-1.31;100.00;98511.22;4882524;29;20167;-52
2022/01/21 03:57:36;;;;;;;50.63;23.02;;;;;;;-1.25;100.00;98514.75;4872016;29;20414;-64
2022/01/21 04:00:25;;;;;;;58.70;21.92;;;;;;;-1.13;100.00;98496.63;4877242;29;20100;-59
2022/01/21 04:03:11;;;;;;;51.08;21.80;;;;;;;-1.16;100.00;98517.41;4892540;29;20149;-59
2022/01/21 04:05:57;;;;;;;58.13;22.55;;;;;;;-1.15;100.00;98520.88;4877358;29;20544;-58
2022/01/21 04:08:43;;;;;;;51.75;21.77;;;;;;;-1.11;100.00;98509.63;4894047;29;20055;-67
2022/01/21 04:11:28;;;;;;;;;;;;;;;-1.11;100.00;98513.09;4888214;29;20132;-66
2022/01/21 04:14:13;;;;;;;54.35;21.88;;;;;;;-1.38;100.00;98518.13;4882531;29;19927;-61
2022/01/21 04:16:58;;;;;;;50.13;20.05;;;;;;;-1.54;100.00;98523.22;4891155;29;20052;-55
2022/01/21 04:19:42;;;;;;;53.35;21.58;;;;;;;-1.40;100.00;98532.84;4887941;29;20051;-61
2022/01/21 04:22:29;;;;;;;49.75;20.48;;;;;;;-1.55;100.00;98511.06;4890680;29;20067;-61
2022/01/21 04:25:17;;;;;;;50.22;21.00;;;;;;;-1.22;100.00;98534.69;4891223;29;20132;-56
2022/01/21 04:28:02;;;;;;;48.10;18.95;;;;;;;-1.51;100.00;98510.22;4882360;29;20935;-60
2022/01/21 04:30:48;;;;;;;50.95;19.70;;;;;;;-1.76;100.00;98524.78;4889040;29;20064;-64
2022/01/21 04:33:34;;;;;;;41.15;18.38;;;;;;;-1.81;100.00;98521.28;4884954;29;20160;-62
2022/01/21 04:36:34;;;;;;;42.20;17.17;;;;;;;-1.72;100.00;98536.03;4873914;29;20581;-55
2022/01/21 04:40:08;;;;;;;35.17;15.95;;;;;;;-1.69;100.00;98529.16;4911510;29;20050;-56
2022/01/21 04:49:05;;;;;;;39.67;16.35;;;;;;;-1.63;100.00;98536.13;4905499;29;20492;-55
2022/01/21 04:52:11;;;;;;;39.60;15.95;;;;;;;-1.64;100.00;98519.69;4909204;29;20175;-55
2022/01/21 04:55:14;;;;;;;39.65;16.52;;;;;;;-1.70;100.00;98539.53;4908972;29;20066;-56
2022/01/21 04:58:00;;;;;;;42.35;16.85;;;;;;;-1.62;100.00;98535.28;4912838;29;20544;-50
2022/01/21 05:00:46;;;;;;;38.90;15.95;;;;;;;-1.67;100.00;98539.53;4925363;29;20110;-58
2022/01/21 05:03:31;;;;;;;39.13;16.45;;;;;;;-1.75;100.00;98546.41;4927149;29;20428;-53
2022/01/21 05:06:17;;;;;;;38.60;16.63;;;;;;;-1.64;100.00;98539.56;4895577;29;20054;-61
2022/01/21 05:09:04;;;;;;;42.70;17.30;;;;;;;-1.83;100.00;98546.34;4927258;29;20086;-58
2022/01/21 05:11:59;;;;;;;43.38;17.13;;;;;;;-1.80;100.00;98550.69;4882615;29;20056;-56
2022/01/21 05:17:42;;;;;;;45.58;17.23;;;;;;;-1.84;100.00;98547.22;4875123;29;21175;-58
2022/01/21 05:20:28;;;;;;;38.92;15.98;;;;;;;-2.04;100.00;98540.97;4889176;29;20434;-56
2022/01/21 05:23:26;;;;;;;36.47;16.58;;;;;;;-1.79;100.00;98542.03;4890664;29;20095;-58
2022/01/21 05:26:12;;;;;;;36.95;16.05;;;;;;;-1.63;100.00;98541.31;4886613;29;20062;-55
2022/01/21 05:28:58;;;;;;;42.25;17.42;;;;;;;-1.52;100.00;98545.75;4883741;29;20055;-56
2022/01/21 05:32:07;;;;;;;39.17;16.55;;;;;;;-1.60;100.00;98542.22;4884682;29;20051;-54
2022/01/21 05:34:58;;;;;;;40.05;16.08;;;;;;;-1.59;100.00;98536.16;4887726;29;20128;-57
2022/01/21 05:38:02;;;;;;;41.90;16.38;;;;;;;-1.86;100.00;98514.31;4888750;29;20104;-61
2022/01/21 05:41:03;;;;;;;35.13;15.68;;;;;;;-1.79;100.00;98513.47;4889727;29;20064;-54
2022/01/21 05:44:13;;;;;;;35.33;16.08;;;;;;;-1.73;100.00;98519.63;4880550;29;20104;-61
2022/01/21 05:47:10;;;;;;;36.38;14.85;;;;;;;-1.76;100.00;98524.78;4884699;29;20051;-55
2022/01/21 05:50:14;;;;;;;37.47;15.65;;;;;;;-1.87;100.00;98526.41;4879240;29;20108;-55
2022/01/21 05:53:37;;;;;;;36.70;16.60;;;;;;;-1.94;100.00;98516.81;4894828;29;20099;-57
2022/01/21 05:56:47;;;;;;;35.20;16.05;;;;;;;-1.92;100.00;98503.84;4906520;29;20156;-59
2022/01/21 05:59:50;;;;;;;35.67;13.95;;;;;;;-1.86;100.00;98509.09;4896553;29;20204;-55
2022/01/21 06:02:37;;;;;;;33.13;15.45;;;;;;;-1.79;100.00;98495.28;4907009;29;20087;-64
2022/01/21 06:05:21;;;;;;;34.13;14.38;;;;;;;-1.95;100.00;98490.81;4891039;29;20055;-56
2022/01/21 06:08:07;;;;;;;31.98;14.23;;;;;;;-1.77;100.00;98491.88;4881756;29;20051;-59
2022/01/21 06:10:52;;;;;;;31.35;13.18;;;;;;;-1.91;100.00;98484.81;4892278;29;20540;-57
2022/01/21 06:13:38;;;;;;;;;;;;;;;-1.94;100.00;98488.25;4898570;29;20052;-58
2022/01/21 06:16:23;;;;;;;34.92;13.88;;;;;;;-1.89;100.00;98484.00;4875745;29;19927;-55
2022/01/21 06:19:08;;;;;;;;;;;;;;;-1.95;100.00;98477.84;4897664;29;20226;-57
2022/01/21 06:21:53;;;;;;;33.58;14.05;;;;;;;-2.00;100.00;98462.25;4902362;29;19982;-62
2022/01/21 06:24:38;;;;;;;29.75;13.23;;;;;;;-1.77;100.00;98478.00;4890941;29;20057;-59
2022/01/21 06:27:26;;;;;;;33.45;14.35;;;;;;;-1.83;100.00;98463.25;4890345;29;20131;-53
2022/01/21 06:30:17;;;;;;;33.60;13.32;;;;;;;-2.05;100.00;98479.50;4892283;29;20140;-58
2022/01/21 06:33:02;;;;;;;31.60;13.55;;;;;;;-1.97;100.00;98482.16;4878527;29;20064;-53
2022/01/21 06:35:49;;;;;;;33.15;13.93;;;;;;;-2.34;100.00;98475.78;4890983;29;20105;-61
2022/01/21 06:38:35;;;;;;;29.25;13.40;;;;;;;-2.51;100.00;98469.56;4890432;29;20536;-59
2022/01/21 06:41:20;;;;;;;26.88;13.10;;;;;;;-2.48;100.00;98477.38;4889235;29;20088;-54
2022/01/21 06:44:06;;;;;;;26.52;12.25;;;;;;;-2.47;100.00;98475.63;4878569;29;20087;-54
2022/01/21 06:46:51;;;;;;;34.70;13.07;;;;;;;-2.30;100.00;98487.91;4883276;29;20237;-63
2022/01/21 06:49:36;;;;;;;31.02;13.65;;;;;;;-2.09;100.00;98471.69;4878325;29;20051;-56
2022/01/21 06:52:21;;;;;;;31.40;12.63;;;;;;;-2.49;100.00;98474.75;4890043;29;20047;-59
2022/01/21 06:55:07;;;;;;;27.48;12.18;;;;;;;-2.34;100.00;98470.59;4889056;29;20060;-63
2022/01/21 06:57:59;;;;;;;26.42;12.30;;;;;;;-2.27;100.00;98481.88;4888913;29;20140;-63
2022/01/21 07:03:50;;;;;;;30.30;12.45;;;;;;;-2.31;100.00;98478.41;4872244;29;20096;-58
2022/01/21 07:09:00;;;;;;;28.85;12.02;;;;;;;-2.09;100.00;98480.31;4888677;29;20057;-62
2022/01/21 07:11:45;;;;;;;28.27;11.73;;;;;;;-2.08;100.00;98476.00;4891264;29;20433;-51
2022/01/21 07:17:23;;;;;;;27.63;12.40;;;;;;;-2.41;100.00;98479.16;4890056;29;20059;-56
2022/01/21 07:20:09;;;;;;;;;;;;;;;-2.29;100.00;98479.28;4890826;29;20064;-54
2022/01/21 07:22:54;;;;;;;25.65;11.88;;;;;;;-2.00;100.00;98469.16;4871959;29;19926;-61
2022/01/21 07:25:43;;;;;;;26.10;11.43;;;;;;;-1.98;100.00;98480.44;4872389;29;20504;-54
2022/01/21 07:28:30;;;;;;;27.80;11.10;;;;;;;-1.95;100.00;98476.13;4882634;29;20149;-52
2022/01/21 07:31:14;;;;;;;33.17;12.00;;;;;;;-2.16;100.00;98467.28;4872957;29;20089;-57
2022/01/21 07:34:04;;;;;;;33.72;13.00;;;;;;;-2.16;100.00;98467.28;4879722;29;20075;-55
2022/01/21 07:36:49;;;;;;;29.33;12.40;;;;;;;-1.99;100.00;98482.16;4887721;29;20099;-58
2022/01/21 07:39:36;;;;;;;32.60;12.63;;;;;;;-2.09;100.00;98456.97;4876951;29;20082;-50
2022/01/21 07:42:20;;;;;;;27.98;11.88;;;;;;;-1.86;100.00;98464.97;4874507;29;20108;-54
2022/01/21 07:45:05;;;;;;;27.20;12.40;;;;;;;-1.78;100.00;98460.69;4879681;29;20060;-56
2022/01/21 07:47:51;;;;;;;25.60;11.70;;;;;;;-1.78;100.00;98458.09;4877843;29;20108;-55
2022/01/21 07:50:39;;;;;;;24.77;11.68;;;;;;;-2.15;100.00;98463.81;4886330;29;20418;-63
2022/01/21 07:53:24;;;;;;;29.48;12.32;;;;;;;-2.11;100.00;98455.22;4885969;29;20728;-57
2022/01/21 07:56:09;;;;;;;25.38;12.85;;;;;;;-2.19;100.00;98451.69;4871974;29;20060;-56
2022/01/21 07:58:54;;;;;;;23.85;12.02;;;;;;;-1.94;100.00;98446.69;4877004;29;20092;-58
2022/01/21 08:01:39;;;;;;;;;;;;;;;-1.68;100.00;98449.47;4864591;29;20109;-67
2022/01/21 08:04:24;;;;;;;24.65;10.57;;;;;;;-1.90;100.00;98440.66;4887753;29;19934;-57
2022/01/21 08:07:11;;;;;;;24.48;11.23;;;;;;;-1.96;100.00;98453.63;4891317;29;20051;-56
2022/01/21 08:09:56;;;;;;;25.17;11.43;;;;;;;-2.34;100.00;98452.41;4890689;29;20458;-62
2022/01/21 08:12:41;;;;;;;22.52;11.02;;;;;;;-2.10;100.00;98450.03;4877063;29;20055;-59
2022/01/21 08:15:28;;;;;;;23.58;11.00;;;;;;;-2.33;100.00;98451.56;4878161;29;20059;-59
2022/01/21 08:18:15;;;;;;;21.75;10.73;;;;;;;-2.27;100.00;98445.56;4886285;29;20188;-54
2022/01/21 08:21:00;;;;;;;28.27;11.20;;;;;;;-2.30;100.00;98445.53;4877838;29;20072;-55
2022/01/21 08:23:53;;;;;;;23.58;10.88;;;;;;;-2.13;100.00;98444.81;4891765;29;20086;-61
2022/01/21 08:26:41;;;;;;;25.10;10.90;;;;;;;-2.13;100.00;98446.56;4891319;29;20087;-57
2022/01/21 08:29:26;;;;;;;22.58;10.70;;;;;;;-2.19;100.00;98436.09;4889562;29;20050;-56
2022/01/21 08:32:12;;;;;;;22.60;10.90;;;;;;;-2.37;100.00;98430.78;4886111;29;20067;-57
2022/01/21 08:35:02;;;;;;;23.27;10.57;;;;;;;-2.29;100.00;98436.91;4875334;29;20059;-57
2022/01/21 08:37:52;;;;;;;23.00;11.43;;;;;;;-2.37;100.00;98423.84;4872228;29;20474;-58
2022/01/21 08:40:37;;;;;;;24.33;10.52;;;;;;;-2.33;100.00;98423.00;4892137;29;20056;-58
2022/01/21 08:43:22;;;;;;;;;;;;;;;-2.23;100.00;98426.56;4873626;29;20048;-55
2022/01/21 08:46:07;;;;;;;23.58;10.52;;;;;;;-2.11;100.00;98405.88;4882572;29;20288;-60
2022/01/21 08:48:52;;;;;;;25.20;11.45;;;;;;;-2.17;100.00;98422.28;4894744;29;20066;-57
2022/01/21 08:52:00;;;;;;;23.23;11.57;;;;;;;-2.19;100.00;98418.81;4888530;29;20112;-52
2022/01/21 08:54:46;;;;;;;28.95;12.50;;;;;;;-2.15;100.00;98415.38;4889104;29;20140;-57
2022/01/21 08:57:34;;;;;;;27.83;11.75;;;;;;;-2.02;100.00;98409.41;4887250;29;20426;-58
2022/01/21 09:00:21;;;;;;;22.10;11.55;;;;;;;-2.12;100.00;98407.63;4875377;29;20091;-61
2022/01/21 09:03:09;;;;;;;24.73;11.38;;;;;;;-2.30;100.00;98398.84;4886987;29;20112;-60
2022/01/21 09:05:53;;;;;;;23.63;11.52;;;;;;;-2.37;100.00;98402.22;4890087;29;20051;-55
2022/01/21 09:08:40;;;;;;;;;;;;;;;-2.30;100.00;98402.28;4887326;29;20047;-59
2022/01/21 09:11:25;;;;;;;24.20;10.93;;;;;;;-2.35;100.00;98387.53;4875434;29;20249;-57
2022/01/21 09:14:10;;;;;;;24.27;10.85;;;;;;;-2.42;100.00;98391.78;4886794;29;20056;-56
2022/01/21 09:16:56;;;;;;;27.73;12.35;;;;;;;-2.59;100.00;98395.97;4887849;29;20055;-59
2022/01/21 09:19:41;;;;;;;28.27;12.35;;;;;;;-2.36;100.00;98393.56;4889220;29;20103;-53
2022/01/21 09:22:28;;;;;;;28.23;13.00;;;;;;;-2.11;100.00;98391.19;4890067;29;20158;-58
2022/01/21 09:25:12;;;;;;;25.55;13.00;;;;;;;-2.02;100.00;98387.81;4885335;29;20043;-57
2022/01/21 09:27:58;;;;;;;24.58;11.95;;;;;;;-2.16;100.00;98390.28;4883222;29;20148;-69
2022/01/21 09:30:44;;;;;;;24.65;12.65;;;;;;;-2.13;100.00;98392.88;4880860;29;20052;-57
2022/01/21 09:33:29;;;;;;;26.02;12.20;;;;;;;-2.11;100.00;98385.13;4882734;29;20108;-60
2022/01/21 09:36:16;;;;;;;26.85;11.40;;;;;;;-2.04;100.00;98390.38;4859075;29;20064;-60
2022/01/21 09:39:04;;;;;;;26.20;12.38;;;;;;;-1.94;100.00;98374.00;4875682;29;20070;-55
2022/01/21 09:41:54;;;;;;;27.13;11.55;;;;;;;-1.79;100.00;98368.91;4883623;29;20063;-68
2022/01/21 09:44:52;;;;;;;29.27;12.52;;;;;;;-1.79;100.00;98371.50;4871343;29;20052;-63
2022/01/21 09:47:48;;;;;;;27.33;12.20;;;;;;;-1.81;100.00;98356.78;4890427;29;20051;-58
2022/01/21 09:50:33;;;;;;;28.50;13.30;;;;;;;-1.87;100.00;98360.19;4885229;29;20108;-66
2022/01/21 09:53:30;;;;;;;29.33;13.07;;;;;;;-1.70;100.00;98366.34;4880653;29;20052;-57
2022/01/21 09:56:16;;;;;;;28.15;12.80;;;;;;;-1.70;100.00;98366.34;4889121;29;20071;-61
2022/01/21 09:59:03;;;;;;;29.67;12.75;;;;;;;-1.75;100.00;98364.56;4893172;29;20485;-57
2022/01/21 10:01:55;;;;;;;30.85;12.98;;;;;;;-1.92;100.00;98351.50;4897631;29;20133;-58
2022/01/21 10:04:50;;;;;;;28.55;13.05;;;;;;;-1.83;100.00;98358.47;4879331;29;20757;-55
2022/01/21 10:07:39;;;;;;;30.50;13.07;;;;;;;-1.71;100.00;98346.44;4889897;29;20115;-59
2022/01/21 10:10:24;;;;;;;28.35;12.57;;;;;;;-1.56;100.00;98337.84;4881526;29;20083;-71
2022/01/21 10:15:37;;;;;;;28.35;13.38;;;;;;;-1.70;100.00;98353.34;4891424;29;20060;-60
2022/01/21 10:18:23;;;;;;;28.20;13.20;;;;;;;-2.07;100.00;98321.97;4883208;29;20212;-59
2022/01/21 10:21:14;;;;;;;26.13;13.23;;;;;;;-2.10;100.00;98334.97;4893818;29;20674;-57
2022/01/21 10:24:16;;;;;;;33.65;14.55;;;;;;;-2.05;100.00;98336.69;4892589;29;20051;-63
2022/01/21 10:27:03;;;;;;;27.27;13.35;;;;;;;-2.15;100.00;98339.22;4895090;29;20062;-59
2022/01/21 10:29:49;;;;;;;29.00;13.35;;;;;;;-2.07;100.00;98342.75;4896840;29;20100;-56
2022/01/21 10:32:36;;;;;;;33.58;13.85;;;;;;;-1.86;100.00;98346.34;4894881;29;20418;-55
2022/01/21 10:35:35;;;;;;;30.90;14.55;;;;;;;-1.78;100.00;98338.63;4878503;29;20069;-64
2022/01/21 10:38:29;;;;;;;32.20;14.05;;;;;;;-2.04;100.00;98329.78;4890029;29;20407;-63
2022/01/21 10:41:18;;;;;;;35.00;14.27;;;;;;;-2.14;100.00;98328.84;4892807;29;20109;-63
2022/01/21 10:44:15;;;;;;;32.58;13.82;;;;;;;-1.94;100.00;98337.63;4899876;29;20083;-60
2022/01/21 10:47:11;;;;;;;36.88;15.07;;;;;;;-1.76;100.00;98326.47;4872712;29;20105;-70
2022/01/21 10:50:12;;;;;;;29.42;14.20;;;;;;;-1.62;100.00;98325.69;4881759;29;20568;-58
2022/01/21 10:52:57;;;;;;;30.27;14.73;;;;;;;-1.89;100.00;98302.19;4907072;29;20128;-60
2022/01/21 10:55:41;;;;;;;32.10;14.25;;;;;;;-2.07;100.00;98316.78;4890781;29;20067;-62
2022/01/21 10:58:39;;;;;;;30.73;14.38;;;;;;;-1.87;100.00;98304.78;4879950;29;20057;-59
2022/01/21 11:01:30;;;;;;;34.22;14.57;;;;;;;-1.81;100.00;98316.09;4897053;29;20091;-59
2022/01/21 11:04:14;;;;;;;27.45;13.15;;;;;;;-1.82;100.00;98316.06;4891282;29;20100;-65
2022/01/21 11:07:00;;;;;;;32.88;15.57;;;;;;;-1.70;100.00;98310.94;4893119;29;20088;-65
2022/01/21 11:09:45;;;;;;;30.42;13.90;;;;;;;-1.64;100.00;98298.84;4899705;29;20056;-62
2022/01/21 11:12:33;;;;;;;29.77;14.63;;;;;;;-1.45;100.00;98297.19;4891112;29;20113;-71
2022/01/21 11:15:18;;;;;;;32.65;14.50;;;;;;;-1.37;100.00;98290.28;4892992;29;20574;-63
2022/01/21 11:18:03;;;;;;;;;;;;;;;-1.39;100.00;98290.25;4890807;29;20054;-68
2022/01/21 11:20:59;;;;;;;33.25;13.48;;;;;;;-1.65;100.00;98293.63;4889766;29;19930;-54
2022/01/21 11:23:52;;;;;;;29.88;13.15;;;;;;;-1.66;100.00;98286.72;4888363;29;20582;-59
2022/01/21 11:26:39;;;;;;;28.98;13.07;;;;;;;-1.57;100.00;98281.53;4890384;29;20059;-67
2022/01/21 11:29:24;;;;;;;35.22;12.73;;;;;;;-1.67;100.00;98285.84;4874328;29;20128;-58
2022/01/21 11:35:14;;;;;;;27.77;13.20;;;;;;;-1.70;100.00;98278.03;4876336;29;20026;-69
2022/01/21 11:38:05;;;;;;;29.02;12.60;;;;;;;-1.56;100.00;98273.75;4888965;29;20072;-65
2022/01/21 11:40:53;;;;;;;22.00;11.70;;;;;;;-1.57;100.00;98278.94;4888262;29;20446;-58
2022/01/21 11:43:48;;;;;;;25.65;12.20;;;;;;;-1.74;100.00;98278.03;4890284;29;20536;-59
2022/01/21 11:49:20;;;;;;;26.08;11.75;;;;;;;-1.62;100.00;98276.31;4890633;29;20127;-60
2022/01/21 11:57:33;;;;;;;22.40;10.57;;;;;;;-1.81;100.00;98279.72;4888199;29;20049;-56
2022/01/21 12:00:31;;;;;;;;;;;;;;;-1.97;100.00;98285.69;4888106;29;20067;-53
2022/01/21 12:03:22;;;;;;;24.77;11.02;;;;;;;-2.09;100.00;98289.97;4889146;29;19983;-57
2022/01/21 12:08:47;;;;;;;27.63;11.20;;;;;;;-2.19;100.00;98280.38;4891584;29;20057;-55
2022/01/21 12:11:37;;;;;;;25.60;10.43;;;;;;;-2.31;100.00;98281.19;4892097;29;20170;-64
2022/01/21 12:14:35;;;;;;;23.70;11.25;;;;;;;-1.99;100.00;98276.16;4878565;29;20112;-62
2022/01/21 12:17:59;;;;;;;23.98;11.15;;;;;;;-1.69;100.00;98289.28;4878658;29;20083;-60
2022/01/21 12:20:45;;;;;;;21.27;10.05;;;;;;;-1.92;100.00;98281.41;4892519;29;20550;-57
2022/01/21 12:23:42;;;;;;;24.20;10.20;;;;;;;-1.98;100.00;98273.56;4890245;29;20060;-60
2022/01/21 12:26:29;;;;;;;20.33;10.35;;;;;;;-2.06;100.00;98279.59;4891442;29;20047;-64
2022/01/21 12:29:13;;;;;;;22.42;10.02;;;;;;;-1.96;100.00;98261.47;4876847;29;20185;-56
2022/01/21 12:32:19;;;;;;;22.48;10.02;;;;;;;-1.92;100.00;98247.66;4889862;29;20052;-63
2022/01/21 12:35:31;;;;;;;23.50;9.77;;;;;;;-1.99;100.00;98258.84;4917688;29;20155;-57
2022/01/21 12:40:44;;;;;;;18.13;9.00;;;;;;;-2.12;100.00;98258.78;4930211;28;20130;-56
2022/01/21 12:43:40;;;;;;;21.73;10.10;;;;;;;-1.91;100.00;98244.19;4896036;29;20059;-55
2022/01/21 12:46:40;;;;;;;22.65;9.35;;;;;;;-1.99;100.00;98256.25;4895933;29;20063;-54
2022/01/21 12:49:33;;;;;;;21.30;8.93;;;;;;;-2.17;100.00;98250.97;4892913;29;20543;-50
2022/01/21 12:52:56;;;;;;;21.42;9.32;;;;;;;-2.22;100.00;98236.25;4888768;29;20564;-53
2022/01/21 12:56:03;;;;;;;22.10;8.95;;;;;;;-2.10;100.00;98234.56;4886827;29;20206;-59
2022/01/21 12:58:50;;;;;;;24.73;10.43;;;;;;;-2.03;100.00;98238.94;4889113;29;20064;-56
2022/01/21 13:01:38;;;;;;;23.08;10.02;;;;;;;-1.96;100.00;98242.41;4878077;29;20206;-68
2022/01/21 13:04:29;;;;;;;24.33;10.13;;;;;;;-2.15;100.00;98236.28;4884003;29;20189;-59
2022/01/21 13:07:41;;;;;;;21.48;9.95;;;;;;;-2.06;100.00;98233.72;4857207;29;20074;-57
2022/01/21 13:10:29;;;;;;;24.13;10.40;;;;;;;-2.20;100.00;98231.91;4879516;29;20146;-55
2022/01/21 13:13:23;;;;;;;20.65;9.25;;;;;;;-1.95;100.00;98237.25;4811533;29;20133;-58
2022/01/21 13:16:08;;;;;;;19.73;8.57;;;;;;;-2.15;100.00;98233.69;4817059;29;20172;-58
2022/01/21 13:19:02;;;;;;;21.35;10.10;;;;;;;-2.28;100.00;98233.59;4805206;29;20071;-63
2022/01/21 13:21:48;;;;;;;18.52;9.60;;;;;;;-2.55;100.00;98223.06;4796919;29;20083;-56
2022/01/21 13:24:34;;;;;;;23.08;10.27;;;;;;;-2.64;100.00;98233.38;4809525;29;20845;-53
2022/01/21 13:27:20;;;;;;;22.30;9.50;;;;;;;-2.67;100.00;98225.56;4808904;29;20065;-57
2022/01/21 13:30:09;;;;;;;19.73;8.88;;;;;;;-2.79;100.00;98228.97;4872392;29;20582;-58
2022/01/21 13:33:10;;;;;;;18.92;8.63;;;;;;;-2.67;100.00;98235.94;4863068;29;20107;-59
2022/01/21 13:35:55;;;;;;;19.13;8.50;;;;;;;-2.76;100.00;98222.94;4891978;29;20202;-54
2022/01/21 13:38:41;;;;;;;19.77;8.95;;;;;;;-2.50;100.00;98232.59;4883853;29;20054;-57
2022/01/21 13:41:26;;;;;;;18.92;8.95;;;;;;;-2.40;100.00;98229.22;4886592;29;20131;-56
2022/01/21 13:44:11;;;;;;;21.80;8.57;;;;;;;-2.45;100.00;98240.44;4888511;29;20059;-67
2022/01/21 13:47:00;;;;;;;23.13;9.25;;;;;;;-2.26;100.00;98239.69;4888574;29;20055;-58
2022/01/21 13:49:47;;;;;;;20.90;8.52;;;;;;;-2.23;100.00;98237.09;4887627;29;20066;-53
2022/01/21 13:53:00;;;;;;;15.57;7.90;;;;;;;-2.50;100.00;98236.94;4890458;29;20131;-61
2022/01/21 13:55:50;;;;;;;18.85;8.15;;;;;;;-2.52;100.00;98230.88;4889343;29;20075;-59
2022/01/21 13:58:37;;;;;;;19.20;8.30;;;;;;;-2.50;100.00;98235.22;4886864;29;20059;-62
2022/01/21 14:01:27;;;;;;;15.82;7.72;;;;;;;-2.60;100.00;98225.66;4889323;29;20111;-61
2022/01/21 14:04:11;;;;;;;19.27;8.35;;;;;;;-2.36;100.00;98220.59;4890602;29;20077;-59
2022/01/21 14:06:57;;;;;;;15.25;7.80;;;;;;;-2.40;100.00;98230.94;4888177;29;20075;-65